createdAt,value
2023-08-07T00:01:46.698Z,79.48
2023-08-07T00:04:13.388Z,79.30
2023-08-07T00:06:39.877Z,79.19
2023-08-07T00:09:06.416Z,79.14
2023-08-07T00:11:32.887Z,79.00
2023-08-07T00:14:00.485Z,78.70
2023-08-07T00:16:27.195Z,78.70
2023-08-07T00:18:57.133Z,78.65
2023-08-07T00:21:24.285Z,78.62
2023-08-07T00:23:51.985Z,78.28
2023-08-07T00:26:19.170Z,78.27
2023-08-07T00:28:45.923Z,78.34
2023-08-07T00:31:13.510Z,78.40
2023-08-07T00:33:40.216Z,78.35
2023-08-07T00:36:06.842Z,78.27
2023-08-07T00:38:33.385Z,78.16
2023-08-07T00:41:01.035Z,78.14
2023-08-07T00:43:27.651Z,78.37
2023-08-07T00:45:54.753Z,78.33
2023-08-07T00:48:21.959Z,78.50
2023-08-07T00:50:50.011Z,78.69
2023-08-07T00:53:16.995Z,78.99
2023-08-07T00:55:43.971Z,79.14
2023-08-07T00:58:11.695Z,79.30
2023-08-07T01:00:38.392Z,79.45
2023-08-07T01:03:07.940Z,79.75
2023-08-07T01:05:35.729Z,79.72
2023-08-07T01:08:04.175Z,79.82
2023-08-07T01:10:56.820Z,80.49
2023-08-07T01:13:50.026Z,80.73
2023-08-07T01:16:38.961Z,80.95
2023-08-07T01:19:12.007Z,81.07
2023-08-07T01:21:38.803Z,80.88
2023-08-07T01:24:05.586Z,81.33
2023-08-07T01:26:33.586Z,81.72
2023-08-07T01:29:13.120Z,82.73
2023-08-07T01:31:41.813Z,82.38
2023-08-07T01:34:09.816Z,82.73
2023-08-07T01:36:38.371Z,83.22
2023-08-07T01:39:08.027Z,83.62
2023-08-07T01:41:37.004Z,84.10
2023-08-07T01:44:04.937Z,84.38
2023-08-07T01:46:31.583Z,84.89
2023-08-07T01:48:58.103Z,84.91
2023-08-07T01:51:24.597Z,85.48
2023-08-07T01:53:51.224Z,85.53
2023-08-07T01:56:17.764Z,85.77
2023-08-07T01:58:44.241Z,85.83
2023-08-07T02:01:10.782Z,86.30
2023-08-07T02:03:37.380Z,86.57
2023-08-07T02:06:04.450Z,86.44
2023-08-07T02:08:30.932Z,86.84
2023-08-07T02:10:57.978Z,86.75
2023-08-07T02:13:24.579Z,86.85
2023-08-07T02:15:51.061Z,86.65
2023-08-07T02:18:17.602Z,86.63
2023-08-07T02:20:44.899Z,86.57
2023-08-07T02:23:11.380Z,86.55
2023-08-07T02:25:37.822Z,86.47
2023-08-07T02:28:04.473Z,86.51
2023-08-07T02:30:32.267Z,86.30
2023-08-07T02:32:58.783Z,86.08
2023-08-07T02:35:25.695Z,86.39
2023-08-07T02:37:52.167Z,85.86
2023-08-07T02:40:20.124Z,85.69
2023-08-07T02:42:46.726Z,85.64
2023-08-07T02:45:22.233Z,86.12
2023-08-07T02:47:48.894Z,85.39
2023-08-07T02:50:15.762Z,85.34
2023-08-07T02:52:44.368Z,85.05
2023-08-07T02:55:12.351Z,84.93
2023-08-07T02:57:38.821Z,85.17
2023-08-07T03:00:06.097Z,85.19
2023-08-07T03:02:32.583Z,85.12
2023-08-07T03:04:59.282Z,85.20
2023-08-07T03:07:26.158Z,85.47
2023-08-07T03:09:52.610Z,85.35
2023-08-07T03:12:19.030Z,85.71
2023-08-07T03:14:45.606Z,85.27
2023-08-07T03:17:12.074Z,85.86
2023-08-07T03:19:38.538Z,85.61
2023-08-07T03:22:05.142Z,85.72
2023-08-07T03:24:31.852Z,85.88
2023-08-07T03:26:58.402Z,85.72
2023-08-07T03:29:24.938Z,86.30
2023-08-07T03:31:51.526Z,86.31
2023-08-07T03:34:18.063Z,86.72
2023-08-07T03:36:46.205Z,87.13
2023-08-07T03:39:13.353Z,87.35
2023-08-07T03:41:39.823Z,87.71
2023-08-07T03:44:06.588Z,87.65
2023-08-07T03:46:33.322Z,87.69
2023-08-07T03:48:59.829Z,87.78
2023-08-07T03:51:26.383Z,87.60
2023-08-07T03:53:52.866Z,87.74
2023-08-07T03:56:19.467Z,87.89
2023-08-07T03:58:45.981Z,87.79
2023-08-07T04:01:12.596Z,87.93
2023-08-07T04:03:39.621Z,88.05
2023-08-07T04:06:06.961Z,88.20
2023-08-07T04:08:33.716Z,88.09
2023-08-07T04:11:01.619Z,88.13
2023-08-07T04:13:29.259Z,88.28
2023-08-07T04:15:56.184Z,88.59
2023-08-07T04:18:23.134Z,88.78
2023-08-07T04:20:53.754Z,88.87
2023-08-07T04:23:20.753Z,89.10
2023-08-07T04:25:51.000Z,89.70
2023-08-07T04:28:17.732Z,89.34
2023-08-07T04:30:45.081Z,89.32
2023-08-07T04:33:11.964Z,89.44
2023-08-07T04:35:38.458Z,89.44
2023-08-07T04:38:05.080Z,89.60
2023-08-07T04:40:31.727Z,89.63
2023-08-07T04:42:58.509Z,89.59
2023-08-07T04:45:25.114Z,89.45
2023-08-07T04:47:51.955Z,89.33
2023-08-07T04:50:19.003Z,89.31
2023-08-07T04:52:45.795Z,89.30
2023-08-07T04:55:12.697Z,89.35
2023-08-07T04:57:39.247Z,89.42
2023-08-07T05:00:06.806Z,89.41
2023-08-07T05:02:33.711Z,89.47
2023-08-07T05:05:00.624Z,88.98
2023-08-07T05:07:27.120Z,89.07
2023-08-07T05:09:54.605Z,89.09
2023-08-07T05:12:21.115Z,88.84
2023-08-07T05:14:47.595Z,88.72
2023-08-07T05:17:14.917Z,88.61
2023-08-07T05:19:41.408Z,88.45
2023-08-07T05:22:07.853Z,88.38
2023-08-07T05:24:40.241Z,88.15
2023-08-07T05:27:09.304Z,88.02
2023-08-07T05:29:44.373Z,87.94
2023-08-07T05:32:12.452Z,87.62
2023-08-07T05:34:39.396Z,87.29
2023-08-07T05:37:07.121Z,86.82
2023-08-07T05:39:34.015Z,86.39
2023-08-07T05:42:00.825Z,86.04
2023-08-07T05:44:27.435Z,85.38
2023-08-07T05:46:53.892Z,85.03
2023-08-07T05:49:23.956Z,84.59
2023-08-07T05:51:52.045Z,83.87
2023-08-07T05:54:18.539Z,83.34
2023-08-07T05:56:44.989Z,82.40
2023-08-07T05:59:11.635Z,81.85
2023-08-07T06:01:38.146Z,81.83
2023-08-07T06:04:05.009Z,80.73
2023-08-07T06:06:35.605Z,79.85
2023-08-07T06:09:03.658Z,79.01
2023-08-07T06:11:30.268Z,78.57
2023-08-07T06:13:57.122Z,77.37
2023-08-07T06:16:23.618Z,77.36
2023-08-07T06:18:50.124Z,77.45
2023-08-07T06:21:16.980Z,77.45
2023-08-07T06:23:43.433Z,77.65
2023-08-07T06:26:09.890Z,77.64
2023-08-07T06:28:37.692Z,77.49
2023-08-07T06:31:05.585Z,77.26
2023-08-07T06:33:32.363Z,76.94
2023-08-07T06:35:59.189Z,76.69
2023-08-07T06:38:25.991Z,75.99
2023-08-07T06:40:52.792Z,75.75
2023-08-07T06:43:19.571Z,75.67
2023-08-07T06:45:56.571Z,75.40
2023-08-07T06:48:23.571Z,74.13
2023-08-07T06:50:51.645Z,73.61
2023-08-07T06:53:18.663Z,72.40
2023-08-07T06:55:45.700Z,72.45
2023-08-07T06:58:12.259Z,71.81
2023-08-07T07:00:38.811Z,69.78
2023-08-07T07:03:06.022Z,68.31
2023-08-07T07:05:33.825Z,67.01
2023-08-07T07:08:00.654Z,66.60
2023-08-07T07:10:27.094Z,66.87
2023-08-07T07:12:53.582Z,67.29
2023-08-07T07:15:20.088Z,66.49
2023-08-07T07:17:46.841Z,65.89
2023-08-07T07:20:13.693Z,64.95
2023-08-07T07:22:40.164Z,64.26
2023-08-07T07:25:07.168Z,64.85
2023-08-07T07:27:33.649Z,67.76
2023-08-07T07:30:00.208Z,70.20
2023-08-07T07:32:27.372Z,72.10
2023-08-07T07:34:53.941Z,73.75
2023-08-07T07:37:20.451Z,76.03
2023-08-07T07:39:46.961Z,77.40
2023-08-07T07:42:13.490Z,78.63
2023-08-07T07:44:40.794Z,79.32
2023-08-07T07:47:09.636Z,80.39
2023-08-07T07:49:38.021Z,79.55
2023-08-07T07:52:04.985Z,78.14
2023-08-07T07:54:31.575Z,77.39
2023-08-07T07:56:58.462Z,76.15
2023-08-07T07:59:25.147Z,73.72
2023-08-07T08:01:52.458Z,72.22
2023-08-07T08:04:20.519Z,70.78
2023-08-07T08:06:49.405Z,69.71
2023-08-07T08:09:16.704Z,70.07
2023-08-07T08:11:43.387Z,71.10
2023-08-07T08:14:10.382Z,72.96
2023-08-07T08:16:36.897Z,74.01
2023-08-07T08:19:03.717Z,75.05
2023-08-07T08:21:31.938Z,76.05
2023-08-07T08:23:58.435Z,77.28
2023-08-07T08:26:24.967Z,78.55
2023-08-07T08:28:51.391Z,79.53
2023-08-07T08:31:17.896Z,80.18
2023-08-07T08:33:44.436Z,81.33
2023-08-07T08:36:10.940Z,81.06
2023-08-07T08:38:37.396Z,79.59
2023-08-07T08:41:04.895Z,78.29
2023-08-07T08:43:35.639Z,77.87
2023-08-07T08:46:02.298Z,77.62
2023-08-07T08:48:32.470Z,77.53
2023-08-07T08:50:59.338Z,76.54
2023-08-07T08:53:26.527Z,75.23
2023-08-07T08:55:53.260Z,74.94
2023-08-07T08:58:22.238Z,74.05
2023-08-07T09:00:49.565Z,72.68
2023-08-07T09:03:16.308Z,71.52
2023-08-07T09:05:43.393Z,70.79
2023-08-07T09:08:11.080Z,69.17
2023-08-07T09:10:38.999Z,67.49
2023-08-07T09:13:12.018Z,66.91
2023-08-07T09:15:40.809Z,66.38
2023-08-07T09:18:08.891Z,66.00
2023-08-07T09:20:37.557Z,63.09
2023-08-07T09:23:04.055Z,59.82
2023-08-07T09:25:32.261Z,58.26
2023-08-07T09:27:58.882Z,59.11
2023-08-07T09:30:29.994Z,57.76
2023-08-07T09:33:03.496Z,54.71
2023-08-07T09:35:32.256Z,53.06
2023-08-07T09:37:59.519Z,52.90
2023-08-07T09:40:26.112Z,52.85
2023-08-07T09:42:54.453Z,53.00
2023-08-07T09:45:25.696Z,52.09
2023-08-07T09:48:03.069Z,51.10
2023-08-07T09:50:30.892Z,49.64
2023-08-07T09:52:59.147Z,47.89
2023-08-07T09:55:26.860Z,48.00
2023-08-07T09:57:54.050Z,48.60
2023-08-07T10:00:21.257Z,48.30
2023-08-07T10:05:18.666Z,47.06
2023-08-07T10:07:45.259Z,46.88
2023-08-07T10:10:12.015Z,47.06
2023-08-07T10:12:42.254Z,46.96
2023-08-07T10:15:09.512Z,46.87
2023-08-07T10:17:36.122Z,47.60
2023-08-07T10:20:02.746Z,46.85
2023-08-07T10:22:31.908Z,47.12
2023-08-07T10:25:01.946Z,48.65
2023-08-07T10:27:32.295Z,49.63
2023-08-07T10:30:01.241Z,49.50
2023-08-07T10:32:28.910Z,49.52
2023-08-07T10:34:55.674Z,49.99
2023-08-07T10:37:44.742Z,50.33
2023-08-07T10:40:13.693Z,49.15
2023-08-07T10:43:14.134Z,50.41
2023-08-07T10:45:40.829Z,49.63
2023-08-07T10:48:09.528Z,48.53
2023-08-07T10:50:49.689Z,48.53
2023-08-07T10:53:31.129Z,49.34
2023-08-07T10:56:01.072Z,48.98
2023-08-07T10:58:35.460Z,48.30
2023-08-07T11:01:23.293Z,48.33
2023-08-07T11:04:14.284Z,48.86
2023-08-07T11:06:42.599Z,48.35
2023-08-07T11:09:10.780Z,48.94
2023-08-07T11:11:45.998Z,52.15
2023-08-07T11:14:17.282Z,54.17
2023-08-07T11:16:45.308Z,54.33
2023-08-07T11:19:14.133Z,54.99
2023-08-07T11:21:44.097Z,55.01
2023-08-07T11:24:14.472Z,55.03
2023-08-07T11:26:43.687Z,55.41
2023-08-07T11:29:10.491Z,54.50
2023-08-07T11:31:37.346Z,54.18
2023-08-07T11:34:04.056Z,53.61
2023-08-07T11:36:30.907Z,53.25
2023-08-07T11:38:57.676Z,52.31
2023-08-07T11:41:24.287Z,52.57
2023-08-07T11:43:50.774Z,52.87
2023-08-07T11:46:17.347Z,50.61
2023-08-07T11:48:48.460Z,49.65
2023-08-07T11:51:15.229Z,49.31
2023-08-07T11:53:43.033Z,48.52
2023-08-07T11:56:16.949Z,49.85
2023-08-07T11:58:48.642Z,50.92
2023-08-07T12:01:15.502Z,51.17
2023-08-07T12:04:09.522Z,52.19
2023-08-07T12:06:37.600Z,53.89
2023-08-07T12:09:04.506Z,54.29
2023-08-07T12:11:31.793Z,53.93
2023-08-07T12:14:01.701Z,54.46
2023-08-07T12:16:33.944Z,55.18
2023-08-07T12:19:00.379Z,55.09
2023-08-07T12:21:27.224Z,55.04
2023-08-07T12:23:56.828Z,55.51
2023-08-07T12:26:23.491Z,55.14
2023-08-07T12:28:50.826Z,55.55
2023-08-07T12:31:18.742Z,55.57
2023-08-07T12:33:45.445Z,57.17
2023-08-07T12:38:44.569Z,60.31
2023-08-07T12:41:44.834Z,61.21
2023-08-07T12:43:57.560Z,61.99
2023-08-07T12:48:53.442Z,62.34
2023-08-07T12:51:20.031Z,61.76
2023-08-07T12:53:46.636Z,62.91
2023-08-07T12:56:13.424Z,62.46
2023-08-07T12:58:42.331Z,63.20
2023-08-07T13:01:10.196Z,62.44
2023-08-07T13:03:36.665Z,62.82
2023-08-07T13:06:06.573Z,61.46
2023-08-07T13:08:34.612Z,60.46
2023-08-07T13:11:01.860Z,60.25
2023-08-07T13:13:31.930Z,58.74
2023-08-07T13:15:58.332Z,59.45
2023-08-07T13:18:25.592Z,57.89
2023-08-07T13:20:51.984Z,57.13
2023-08-07T13:23:18.435Z,56.68
2023-08-07T13:25:44.869Z,55.79
2023-08-07T13:28:11.333Z,54.98
2023-08-07T13:30:38.228Z,54.13
2023-08-07T13:33:05.060Z,54.31
2023-08-07T13:35:33.979Z,53.36
2023-08-07T13:38:00.921Z,53.13
2023-08-07T13:40:27.494Z,52.52
2023-08-07T13:42:54.356Z,52.25
2023-08-07T13:45:21.198Z,51.61
2023-08-07T13:47:47.696Z,50.52
2023-08-07T13:50:14.296Z,50.33
2023-08-07T13:52:40.852Z,49.02
2023-08-07T13:55:09.964Z,49.08
2023-08-07T13:57:36.617Z,49.45
2023-08-07T14:00:03.979Z,49.80
2023-08-07T14:02:31.406Z,49.18
2023-08-07T14:04:58.496Z,48.51
2023-08-07T14:07:24.991Z,48.79
2023-08-07T14:09:51.438Z,49.73
2023-08-07T14:12:17.953Z,50.26
2023-08-07T14:14:44.505Z,48.52
2023-08-07T14:17:10.954Z,48.74
2023-08-07T14:19:37.448Z,48.16
2023-08-07T14:22:04.114Z,47.70
2023-08-07T14:24:30.813Z,47.31
2023-08-07T14:26:57.254Z,48.24
2023-08-07T14:29:23.758Z,48.91
2023-08-07T14:31:50.207Z,48.85
2023-08-07T14:34:16.914Z,48.81
2023-08-07T14:36:43.478Z,49.94
2023-08-07T14:39:10.006Z,50.87
2023-08-07T14:41:36.535Z,50.82
2023-08-07T14:44:03.071Z,51.00
2023-08-07T14:46:29.619Z,51.09
2023-08-07T14:48:56.777Z,50.84
2023-08-07T14:51:23.311Z,51.23
2023-08-07T14:53:50.161Z,52.33
2023-08-07T14:56:16.675Z,55.21
2023-08-07T14:58:43.123Z,58.41
2023-08-07T15:01:09.594Z,60.54
2023-08-07T15:03:36.092Z,63.36
2023-08-07T15:06:02.669Z,64.25
2023-08-07T15:08:29.139Z,66.06
2023-08-07T15:10:55.651Z,67.90
2023-08-07T15:13:22.169Z,69.45
2023-08-07T15:15:48.738Z,70.64
2023-08-07T15:18:15.374Z,72.18
2023-08-07T15:20:41.910Z,74.91
2023-08-07T15:23:08.577Z,76.44
2023-08-07T15:25:35.123Z,74.58
2023-08-07T15:28:02.468Z,73.87
2023-08-07T15:30:30.154Z,74.43
2023-08-07T15:32:57.393Z,74.24
2023-08-07T15:35:24.403Z,74.07
2023-08-07T15:37:50.960Z,76.39
2023-08-07T15:40:17.494Z,76.15
2023-08-07T15:42:46.557Z,75.36
2023-08-07T15:45:14.244Z,76.08
2023-08-07T15:47:40.991Z,77.47
2023-08-07T15:50:07.825Z,77.84
2023-08-07T15:52:34.359Z,80.36
2023-08-07T15:55:00.965Z,81.13
2023-08-07T15:57:27.414Z,81.53
2023-08-07T15:59:54.071Z,82.66
2023-08-07T16:02:20.638Z,82.38
2023-08-07T16:04:47.220Z,82.92
2023-08-07T16:07:13.811Z,82.34
2023-08-07T16:09:40.244Z,83.06
2023-08-07T16:12:07.233Z,82.21
2023-08-07T16:14:36.357Z,81.98
2023-08-07T16:17:05.752Z,82.60
2023-08-07T16:19:32.617Z,81.50
2023-08-07T16:21:59.063Z,78.86
2023-08-07T16:24:25.561Z,77.87
2023-08-07T16:26:52.028Z,78.04
2023-08-07T16:29:18.857Z,78.09
2023-08-07T16:31:45.416Z,76.62
2023-08-07T16:34:12.051Z,74.85
2023-08-07T16:36:38.949Z,73.77
2023-08-07T16:39:05.391Z,72.13
2023-08-07T16:41:31.999Z,68.23
2023-08-07T16:43:58.582Z,66.30
2023-08-07T16:46:25.076Z,65.61
2023-08-07T16:48:51.656Z,65.84
2023-08-07T16:51:19.878Z,65.56
2023-08-07T16:53:49.060Z,65.29
2023-08-07T16:56:16.004Z,64.50
2023-08-07T16:58:44.984Z,64.53
2023-08-07T17:01:11.514Z,64.63
2023-08-07T17:03:38.030Z,64.37
2023-08-07T17:06:04.654Z,64.50
2023-08-07T17:08:31.335Z,63.68
2023-08-07T17:10:57.760Z,62.82
2023-08-07T17:13:24.733Z,61.83
2023-08-07T17:15:51.398Z,62.12
2023-08-07T17:18:18.060Z,60.58
2023-08-07T17:20:44.754Z,60.85
2023-08-07T17:23:11.369Z,60.70
2023-08-07T17:25:37.814Z,60.19
2023-08-07T17:28:04.898Z,60.30
2023-08-07T17:30:31.448Z,60.39
2023-08-07T17:32:58.179Z,61.05
2023-08-07T17:35:25.290Z,63.24
2023-08-07T17:37:51.804Z,64.57
2023-08-07T17:40:18.344Z,65.21
2023-08-07T17:42:44.919Z,66.66
2023-08-07T17:45:13.368Z,67.43
2023-08-07T17:47:42.354Z,68.50
2023-08-07T17:50:10.410Z,68.94
2023-08-07T17:52:38.981Z,70.52
2023-08-07T17:55:06.405Z,71.51
2023-08-07T17:57:33.153Z,72.38
2023-08-07T17:59:59.700Z,73.65
2023-08-07T18:02:26.352Z,73.87
2023-08-07T18:04:52.968Z,74.04
2023-08-07T18:07:19.629Z,73.51
2023-08-07T18:09:46.160Z,74.16
2023-08-07T18:12:12.715Z,74.74
2023-08-07T18:14:39.595Z,74.00
2023-08-07T18:17:06.443Z,73.90
2023-08-07T18:19:33.058Z,73.87
2023-08-07T18:22:00.901Z,74.91
2023-08-07T18:24:27.975Z,76.41
2023-08-07T18:26:54.705Z,77.54
2023-08-07T18:29:21.285Z,78.28
2023-08-07T18:31:48.296Z,80.42
2023-08-07T18:34:14.778Z,81.27
2023-08-07T18:36:41.836Z,82.37
2023-08-07T18:39:08.441Z,82.72
2023-08-07T18:41:35.186Z,83.26
2023-08-07T18:44:03.102Z,84.28
2023-08-07T18:46:29.771Z,84.50
2023-08-07T18:48:56.339Z,85.71
2023-08-07T18:51:22.902Z,85.70
2023-08-07T18:53:49.399Z,86.13
2023-08-07T18:56:15.889Z,86.77
2023-08-07T18:58:42.434Z,87.05
2023-08-07T19:01:09.518Z,87.05
2023-08-07T19:03:36.238Z,87.67
2023-08-07T19:06:06.255Z,87.92
2023-08-07T19:08:36.016Z,87.95
2023-08-07T19:11:02.624Z,86.67
2023-08-07T19:13:29.178Z,86.29
2023-08-07T19:15:57.266Z,85.59
2023-08-07T19:18:24.670Z,84.71
2023-08-07T19:20:52.202Z,84.38
2023-08-07T19:23:19.072Z,83.49
2023-08-07T19:25:46.006Z,82.51
2023-08-07T19:28:13.834Z,82.41
2023-08-07T19:30:40.698Z,82.36
2023-08-07T19:33:10.770Z,81.58
2023-08-07T19:35:38.301Z,81.50
2023-08-07T19:38:05.001Z,80.68
2023-08-07T19:40:31.776Z,80.89
2023-08-07T19:42:58.366Z,80.32
2023-08-07T19:45:24.935Z,80.42
2023-08-07T19:47:51.490Z,80.18
2023-08-07T19:50:17.989Z,79.92
2023-08-07T19:52:44.440Z,79.78
2023-08-07T19:55:11.450Z,80.16
2023-08-07T19:57:38.858Z,81.20
2023-08-07T20:00:06.624Z,82.13
2023-08-07T20:02:34.225Z,82.44
2023-08-07T20:05:00.970Z,82.53
2023-08-07T20:07:27.694Z,83.16
2023-08-07T20:09:54.189Z,83.51
2023-08-07T20:12:21.850Z,83.51
2023-08-07T20:14:48.538Z,83.53
2023-08-07T20:17:15.098Z,83.83
2023-08-07T20:19:41.695Z,83.47
2023-08-07T20:22:08.450Z,83.27
2023-08-07T20:24:34.960Z,83.69
2023-08-07T20:27:01.489Z,83.73
2023-08-07T20:29:28.505Z,83.54
2023-08-07T20:31:55.009Z,83.49
2023-08-07T20:34:21.549Z,83.24
2023-08-07T20:36:48.051Z,82.86
2023-08-07T20:39:14.865Z,82.28
2023-08-07T20:41:41.378Z,81.95
2023-08-07T20:44:07.827Z,81.62
2023-08-07T20:46:34.307Z,81.16
2023-08-07T20:49:01.052Z,80.97
2023-08-07T20:51:27.572Z,81.07
2023-08-07T20:53:54.017Z,80.79
2023-08-07T20:56:20.579Z,80.95
2023-08-07T20:58:47.167Z,80.93
2023-08-07T21:01:13.779Z,80.81
2023-08-07T21:03:40.314Z,80.12
2023-08-07T21:06:06.776Z,79.45
2023-08-07T21:08:33.443Z,79.14
2023-08-07T21:11:00.065Z,77.82
2023-08-07T21:13:26.520Z,77.18
2023-08-07T21:15:53.036Z,76.34
2023-08-07T21:18:19.685Z,76.07
2023-08-07T21:20:46.374Z,75.25
2023-08-07T21:23:16.630Z,74.61
2023-08-07T21:25:43.335Z,74.42
2023-08-07T21:28:10.630Z,74.09
2023-08-07T21:30:37.716Z,73.57
2023-08-07T21:33:04.967Z,73.11
2023-08-07T21:35:31.650Z,71.61
2023-08-07T21:37:58.170Z,71.94
2023-08-07T21:40:24.868Z,71.38
2023-08-07T21:42:51.491Z,71.16
2023-08-07T21:45:18.051Z,70.92
2023-08-07T21:47:45.511Z,69.87
2023-08-07T21:50:12.423Z,70.01
2023-08-07T21:52:39.038Z,69.93
2023-08-07T21:55:06.070Z,69.47
2023-08-07T21:57:34.016Z,69.24
2023-08-07T22:00:00.731Z,68.87
2023-08-07T22:02:27.565Z,68.98
2023-08-07T22:04:54.265Z,69.96
2023-08-07T22:07:20.751Z,70.49
2023-08-07T22:09:47.385Z,70.95
2023-08-07T22:12:13.945Z,71.20
2023-08-07T22:14:40.458Z,71.31
2023-08-07T22:17:07.938Z,71.44
2023-08-07T22:19:34.955Z,71.57
2023-08-07T22:22:02.287Z,71.59
2023-08-07T22:24:28.900Z,71.45
2023-08-07T22:26:55.362Z,71.35
2023-08-07T22:29:21.836Z,71.22
2023-08-07T22:31:48.337Z,71.13
2023-08-07T22:34:15.039Z,71.26
2023-08-07T22:36:41.586Z,71.04
2023-08-07T22:39:08.109Z,71.20
2023-08-07T22:41:34.918Z,71.42
2023-08-07T22:44:02.103Z,71.57
2023-08-07T22:46:28.646Z,71.44
2023-08-07T22:48:55.275Z,71.14
2023-08-07T22:51:21.926Z,71.35
2023-08-07T22:53:48.481Z,71.25
2023-08-07T22:56:14.986Z,71.33
2023-08-07T22:58:41.615Z,71.60
2023-08-07T23:01:08.674Z,71.98
2023-08-07T23:03:35.180Z,72.76
2023-08-07T23:06:01.960Z,73.07
2023-08-07T23:08:28.449Z,73.79
2023-08-07T23:10:54.982Z,74.00
2023-08-07T23:13:21.556Z,74.76
2023-08-07T23:15:48.244Z,75.31
2023-08-07T23:18:15.067Z,76.36
2023-08-07T23:20:41.752Z,77.02
2023-08-07T23:23:08.325Z,77.34
2023-08-07T23:25:35.578Z,78.48
2023-08-07T23:28:02.628Z,79.15
2023-08-07T23:30:30.063Z,80.61
2023-08-07T23:32:56.718Z,81.06
2023-08-07T23:35:23.322Z,81.86
2023-08-07T23:37:49.830Z,82.43
2023-08-07T23:40:16.333Z,83.08
2023-08-07T23:42:42.921Z,83.30
2023-08-07T23:45:09.894Z,83.64
2023-08-07T23:47:36.758Z,83.76
2023-08-07T23:50:03.442Z,83.58
2023-08-07T23:52:30.248Z,84.28
2023-08-07T23:54:56.759Z,84.44
2023-08-07T23:57:23.323Z,84.15
2023-08-07T23:59:53.551Z,84.90
